Time;durP1;ratioP1;P1;durP2;ratioP2;P2;SDS_P1;SDS_P2;PMS_P1;PMS_P2;Temp;Humidity;BMP_temperature;BMP_pressure;BME280_temperature;BME280_humidity;BME280_pressure;Samples;Min_cycle;Max_cycle;Signal;HPM_P1;HPM_P2
2022/05/08 00:01:58;;;;;;;5.78;3.35;;;;;;;12.54;47.37;95123.47;4147662;28;20056;-56
2022/05/08 00:04:02;;;;;;;8.18;3.22;;;;;;;12.49;47.05;95123.13;4147248;28;20126;-55
2022/05/08 00:06:10;;;;;;;9.38;2.70;;;;;;;12.50;46.96;95124.78;4147846;28;20093;-53
2022/05/08 00:08:12;;;;;;;7.32;2.97;;;;;;;12.43;46.94;95118.50;4146021;28;20253;-56
2022/05/08 00:10:14;;;;;;;7.13;3.08;;;;;;;12.47;47.38;95114.56;4147399;28;20058;-52
2022/05/08 00:12:17;;;;;;;5.40;2.65;;;;;;;12.55;47.27;95111.97;4147560;28;20050;-53
2022/05/08 00:14:19;;;;;;;8.38;3.03;;;;;;;12.60;46.74;95109.66;4147248;28;20129;-55
2022/05/08 00:16:22;;;;;;;7.22;2.90;;;;;;;12.57;46.66;95111.81;4137450;28;20056;-52
2022/05/08 00:18:24;;;;;;;6.05;2.78;;;;;;;12.57;46.77;95109.19;4146330;28;20064;-56
2022/05/08 00:20:26;;;;;;;9.27;2.80;;;;;;;12.63;46.53;95114.63;4147265;28;20053;-56
2022/05/08 00:22:28;;;;;;;9.00;2.40;;;;;;;12.73;46.58;95119.72;4147196;28;20045;-56
2022/05/08 00:24:35;;;;;;;6.18;2.60;;;;;;;12.76;46.41;95116.78;4146328;28;20057;-55
2022/05/08 00:26:36;;;;;;;5.25;2.97;;;;;;;12.73;46.23;95121.53;4147419;28;20120;-51
2022/05/08 00:28:39;;;;;;;4.40;2.50;;;;;;;12.68;46.47;95119.38;4147393;28;20058;-53
2022/05/08 00:30:41;;;;;;;4.85;2.65;;;;;;;12.67;46.36;95123.00;4147345;28;20448;-52
2022/05/08 00:32:43;;;;;;;8.40;2.65;;;;;;;12.69;46.91;95123.66;4147376;28;20073;-56
2022/05/08 00:34:45;;;;;;;4.32;2.42;;;;;;;12.70;46.55;95122.69;4146996;28;20057;-55
2022/05/08 00:36:46;;;;;;;7.20;3.03;;;;;;;12.68;46.32;95116.75;4145180;28;20058;-53
2022/05/08 00:38:48;;;;;;;5.80;2.70;;;;;;;12.61;46.30;95118.41;4143248;28;20057;-52
2022/05/08 00:40:50;;;;;;;6.88;2.85;;;;;;;12.58;46.70;95116.88;4144166;28;20510;-50
2022/05/08 00:42:52;;;;;;;9.93;2.90;;;;;;;12.61;46.53;95113.97;4138228;28;20046;-55
2022/05/08 00:44:53;;;;;;;7.90;2.95;;;;;;;12.60;46.90;95120.19;4144577;28;20080;-55
2022/05/08 00:46:55;;;;;;;6.47;2.90;;;;;;;12.66;46.98;95118.72;4159476;28;20057;-52
2022/05/08 00:48:57;;;;;;;7.28;2.92;;;;;;;12.59;46.76;95121.19;4143871;28;20050;-55
2022/05/08 00:51:00;;;;;;;8.35;3.30;;;;;;;12.42;46.67;95114.25;4144456;28;20058;-55
2022/05/08 00:53:05;;;;;;;9.18;2.95;;;;;;;12.37;47.23;95119.97;4142974;28;20157;-56
2022/05/08 00:55:07;;;;;;;7.95;3.78;;;;;;;12.27;47.14;95114.84;4144275;28;20058;-55
2022/05/08 00:57:09;;;;;;;8.60;3.65;;;;;;;12.27;47.10;95117.47;4143088;28;20088;-56
2022/05/08 00:59:11;;;;;;;6.57;3.45;;;;;;;12.31;47.22;95114.53;4142810;28;20514;-52
2022/05/08 01:01:14;;;;;;;8.63;3.53;;;;;;;12.32;47.39;95119.63;4144596;28;20486;-54
2022/05/08 01:03:16;;;;;;;6.57;3.20;;;;;;;12.34;47.43;95116.84;4144159;28;20115;-54
2022/05/08 01:05:17;;;;;;;7.97;3.63;;;;;;;12.37;47.22;95117.34;4144561;28;20147;-54
2022/05/08 01:07:20;;;;;;;10.75;3.35;;;;;;;12.36;47.32;95118.31;4144606;28;20112;-54
2022/05/08 01:09:22;;;;;;;5.20;3.08;;;;;;;12.41;47.36;95117.84;4141749;28;20104;-54
2022/05/08 01:11:24;;;;;;;11.60;3.20;;;;;;;12.44;46.99;95117.53;4144731;28;20088;-54
2022/05/08 01:13:26;;;;;;;7.78;3.60;;;;;;;12.41;47.13;95113.44;4144248;28;20193;-53
2022/05/08 01:15:28;;;;;;;9.63;3.10;;;;;;;12.36;47.45;95112.25;4144280;28;20147;-54
2022/05/08 01:17:29;;;;;;;8.25;2.92;;;;;;;12.31;47.34;95115.34;4144001;28;20050;-55
2022/05/08 01:19:31;;;;;;;3.85;2.50;;;;;;;12.34;47.87;95119.47;4144027;28;20050;-53
2022/05/08 01:21:41;;;;;;;6.70;2.92;;;;;;;12.36;47.50;95114.88;4143955;28;20049;-54
2022/05/08 01:23:44;;;;;;;8.50;2.83;;;;;;;12.22;47.19;95111.06;4142885;28;20046;-57
2022/05/08 01:25:53;;;;;;;9.73;3.05;;;;;;;12.13;47.33;95112.84;4144433;28;20046;-54
2022/05/08 01:27:55;;;;;;;7.07;3.00;;;;;;;11.89;47.62;95121.41;4144324;28;20054;-58
2022/05/08 01:29:57;;;;;;;8.10;2.67;;;;;;;11.36;48.86;95115.34;4144380;28;20110;-54
2022/05/08 01:31:59;;;;;;;7.00;3.40;;;;;;;11.07;49.49;95121.66;4140801;28;20725;-52
2022/05/08 01:34:01;;;;;;;7.40;2.88;;;;;;;11.09;49.89;95112.84;4145058;28;20049;-54
2022/05/08 01:36:03;;;;;;;10.25;2.80;;;;;;;11.19;49.40;95109.16;4160787;28;20064;-56
2022/05/08 01:38:06;;;;;;;6.30;2.92;;;;;;;11.26;49.53;95106.75;4147233;28;20053;-53
2022/05/08 01:40:08;;;;;;;11.50;3.30;;;;;;;11.38;49.13;95105.53;4143894;28;20144;-53
2022/05/08 01:42:10;;;;;;;9.45;3.42;;;;;;;11.43;49.23;95105.88;4139776;28;20065;-55
2022/05/08 01:44:12;;;;;;;6.30;2.85;;;;;;;11.45;48.93;95096.03;4142637;28;20564;-56
2022/05/08 01:46:14;;;;;;;5.13;2.92;;;;;;;11.44;48.97;95097.03;4143677;28;20057;-54
2022/05/08 01:48:22;;;;;;;8.02;2.80;;;;;;;11.34;48.87;95101.56;4142987;28;20056;-53
2022/05/08 01:50:24;;;;;;;7.57;2.90;;;;;;;11.21;49.12;95098.53;4143484;28;20053;-54
2022/05/08 01:52:26;;;;;;;7.18;3.00;;;;;;;10.86;50.13;95100.19;4143542;28;20538;-53
2022/05/08 01:54:28;;;;;;;6.47;2.60;;;;;;;10.80;50.36;95098.19;4142112;28;20081;-53
2022/05/08 01:56:29;;;;;;;8.13;3.20;;;;;;;10.73;50.37;95105.81;4143750;28;20132;-53
2022/05/08 01:58:31;;;;;;;8.10;3.10;;;;;;;10.58;50.74;95102.91;4144129;28;20479;-52
2022/05/08 02:00:33;;;;;;;5.85;2.63;;;;;;;10.31;51.32;95095.91;4143456;28;20060;-57
2022/05/08 02:02:35;;;;;;;7.32;3.10;;;;;;;10.12;51.57;95102.06;4143680;28;20057;-53
2022/05/08 02:04:37;;;;;;;9.45;3.70;;;;;;;9.97;52.24;95100.91;4143099;28;20125;-52
2022/05/08 02:06:39;;;;;;;8.93;3.15;;;;;;;9.99;52.41;95096.34;4143554;28;20046;-52
2022/05/08 02:08:40;;;;;;;10.25;3.58;;;;;;;10.02;52.21;95102.13;4142102;28;20054;-49
2022/05/08 02:10:43;;;;;;;4.78;2.85;;;;;;;10.06;51.77;95107.88;4143755;28;20057;-54
2022/05/08 02:12:45;;;;;;;8.10;3.42;;;;;;;10.15;51.54;95106.16;4142219;28;20120;-54
2022/05/08 02:14:47;;;;;;;6.65;2.88;;;;;;;10.23;51.36;95107.09;4143313;28;20157;-58
2022/05/08 02:16:49;;;;;;;8.20;3.60;;;;;;;10.16;50.54;95105.22;4143486;28;20050;-52
2022/05/08 02:18:51;;;;;;;8.88;3.30;;;;;;;10.23;50.62;95101.03;4143515;28;20100;-53
2022/05/08 02:20:53;;;;;;;4.95;3.05;;;;;;;10.39;50.61;95100.41;4142107;28;20049;-54
2022/05/08 02:22:54;;;;;;;7.18;3.08;;;;;;;10.57;50.07;95103.88;4126208;28;20050;-54
2022/05/08 02:24:56;;;;;;;6.15;2.75;;;;;;;10.72;49.79;95105.97;4127071;28;20105;-52
2022/05/08 02:26:58;;;;;;;5.93;3.17;;;;;;;10.82;49.21;95104.94;4131536;28;20128;-54
2022/05/08 02:29:00;;;;;;;4.95;2.90;;;;;;;10.93;49.46;95103.88;4143211;28;20135;-52
2022/05/08 02:31:01;;;;;;;5.53;3.35;;;;;;;10.99;49.21;95099.81;4143410;28;20104;-53
2022/05/08 02:33:03;;;;;;;6.80;3.33;;;;;;;11.06;49.02;95100.88;4143056;28;20126;-54
2022/05/08 02:35:06;;;;;;;6.40;3.15;;;;;;;11.06;48.47;95104.31;4142905;28;20084;-54
2022/05/08 02:37:08;;;;;;;8.37;3.70;;;;;;;11.12;48.34;95100.25;4143185;28;20054;-53
2022/05/08 02:39:10;;;;;;;5.00;3.47;;;;;;;11.18;48.23;95104.06;4141511;28;20526;-54
2022/05/08 02:41:11;;;;;;;9.90;3.80;;;;;;;11.23;48.23;95105.25;4142717;28;20160;-53
2022/05/08 02:43:14;;;;;;;8.35;3.20;;;;;;;11.22;47.98;95102.78;4138590;28;20597;-54
2022/05/08 02:45:16;;;;;;;6.03;3.60;;;;;;;11.19;48.18;95097.84;4139426;28;20406;-54
2022/05/08 02:47:18;;;;;;;10.10;3.13;;;;;;;11.21;48.43;95101.16;4142671;28;20283;-52
2022/05/08 02:49:20;;;;;;;7.03;3.25;;;;;;;11.22;47.90;95100.16;4142308;28;20046;-54
2022/05/08 02:51:21;;;;;;;6.57;3.25;;;;;;;11.20;48.23;95092.44;4142831;28;20046;-52
2022/05/08 02:53:23;;;;;;;7.25;3.28;;;;;;;11.23;48.13;95096.56;4141445;28;20124;-50
2022/05/08 03:00:13;;;;;;;4.35;2.90;;;;;;;11.21;47.41;95095.91;4142166;28;20073;-51
2022/05/08 03:02:16;;;;;;;5.18;3.00;;;;;;;11.16;47.37;95100.75;4142578;28;20112;-55
2022/05/08 03:04:18;;;;;;;4.55;2.83;;;;;;;11.16;47.08;95108.63;4142270;28;20081;-52
2022/05/08 03:06:19;;;;;;;10.13;3.00;;;;;;;11.21;47.82;95101.16;4142827;28;20057;-51
2022/05/08 03:08:21;;;;;;;6.32;3.30;;;;;;;11.25;47.84;95097.25;4141249;28;20116;-50
2022/05/08 03:10:23;;;;;;;8.15;3.35;;;;;;;11.31;47.47;95106.28;4142636;28;20597;-53
2022/05/08 03:12:25;;;;;;;7.70;3.78;;;;;;;11.28;47.35;95102.97;4141076;28;20123;-57
2022/05/08 03:14:26;;;;;;;9.32;3.70;;;;;;;11.29;47.04;95098.56;4142331;28;20707;-53
2022/05/08 03:16:28;;;;;;;7.65;3.33;;;;;;;11.31;47.21;95106.28;4142397;28;20111;-55
2022/05/08 03:18:31;;;;;;;7.40;2.75;;;;;;;11.33;47.10;95114.81;4142166;28;20241;-52
2022/05/08 03:20:32;;;;;;;6.80;2.78;;;;;;;11.30;46.23;95112.50;4142408;28;20116;-54
2022/05/08 03:22:34;;;;;;;4.03;2.95;;;;;;;11.29;45.97;95103.78;4142125;28;20054;-50
2022/05/08 03:24:36;;;;;;;4.53;3.20;;;;;;;11.23;46.07;95105.25;4140783;28;20119;-55
2022/05/08 03:26:38;;;;;;;8.43;3.25;;;;;;;11.25;46.17;95107.72;4142695;28;20123;-54
2022/05/08 03:28:40;;;;;;;5.30;3.08;;;;;;;11.27;46.17;95113.63;4142333;28;20080;-53
2022/05/08 03:30:43;;;;;;;9.57;3.28;;;;;;;11.22;46.76;95115.88;4142344;28;20053;-52
2022/05/08 03:32:45;;;;;;;5.10;2.83;;;;;;;11.26;46.14;95109.38;4142469;28;20140;-50
2022/05/08 03:34:46;;;;;;;5.05;2.75;;;;;;;11.29;45.97;95114.28;4141650;28;20050;-55
2022/05/08 03:36:48;;;;;;;3.60;2.63;;;;;;;11.32;45.52;95116.63;4142300;28;20053;-53
2022/05/08 03:38:50;;;;;;;4.88;3.10;;;;;;;11.34;45.75;95124.34;4140724;28;20100;-52
2022/05/08 03:40:51;;;;;;;5.35;2.85;;;;;;;11.34;45.70;95117.28;4141750;28;20526;-53
2022/05/08 03:42:54;;;;;;;6.55;3.40;;;;;;;11.40;45.85;95114.06;4141876;28;20112;-52
2022/05/08 03:44:55;;;;;;;4.72;3.00;;;;;;;11.43;45.51;95113.75;4139828;28;20153;-54
2022/05/08 03:46:57;;;;;;;7.07;3.00;;;;;;;11.42;45.40;95111.25;4140000;28;20100;-53
2022/05/08 03:48:59;;;;;;;5.68;3.22;;;;;;;11.48;45.50;95114.09;4141485;28;20372;-55
2022/05/08 03:51:01;;;;;;;6.35;3.13;;;;;;;11.47;45.02;95114.25;4142083;28;20138;-51
2022/05/08 03:53:03;;;;;;;5.15;3.10;;;;;;;11.48;45.83;95116.72;4140634;28;20138;-52
2022/05/08 03:55:06;;;;;;;8.27;3.22;;;;;;;11.46;45.30;95123.94;4141992;28;20437;-53
2022/05/08 03:57:07;;;;;;;6.68;3.00;;;;;;;11.42;45.82;95125.22;4141736;28;20054;-52
2022/05/08 03:59:09;;;;;;;5.75;3.10;;;;;;;11.52;45.81;95119.88;4142380;28;20289;-52
2022/05/08 04:01:11;;;;;;;9.52;3.38;;;;;;;11.59;45.45;95120.88;4141750;28;20395;-53
2022/05/08 04:03:13;;;;;;;5.95;2.90;;;;;;;11.66;45.21;95126.38;4141574;28;20058;-51
2022/05/08 04:05:15;;;;;;;7.13;3.60;;;;;;;11.76;45.20;95131.50;4141959;28;20056;-53
2022/05/08 04:07:17;;;;;;;7.20;3.40;;;;;;;11.89;44.92;95118.78;4141774;28;20062;-53
2022/05/08 04:09:19;;;;;;;9.77;3.15;;;;;;;11.96;44.80;95116.34;4140444;28;20188;-53
2022/05/08 04:11:20;;;;;;;6.65;3.17;;;;;;;12.04;44.67;95121.66;4142637;28;20124;-54
2022/05/08 04:13:22;;;;;;;7.22;3.13;;;;;;;12.10;44.44;95123.66;4145213;28;20119;-52
2022/05/08 04:17:44;;;;;;;5.45;3.17;;;;;;;12.23;44.51;95128.44;4145015;28;20046;-51
2022/05/08 04:19:46;;;;;;;7.75;3.10;;;;;;;12.27;44.38;95132.41;4144509;28;20221;-53
2022/05/08 04:21:48;;;;;;;5.72;3.28;;;;;;;12.18;44.63;95134.19;4144502;28;20050;-54
2022/05/08 04:26:10;;;;;;;9.75;3.25;;;;;;;12.24;44.49;95132.75;4145121;28;20046;-53
2022/05/08 04:28:12;;;;;;;6.68;3.70;;;;;;;12.29;44.90;95127.81;4144572;28;20490;-50
2022/05/08 04:30:14;;;;;;;7.90;3.53;;;;;;;12.34;44.54;95138.66;4144453;28;20050;-51
2022/05/08 04:32:16;;;;;;;4.80;2.90;;;;;;;12.34;44.86;95135.22;4144286;28;20054;-52
2022/05/08 04:34:17;;;;;;;4.82;3.25;;;;;;;12.44;44.27;95141.19;4143962;28;20444;-53
2022/05/08 04:36:19;;;;;;;5.95;3.00;;;;;;;12.52;44.07;95149.09;4144457;28;20582;-52
2022/05/08 04:38:21;;;;;;;6.00;3.30;;;;;;;12.58;44.34;95148.44;4142967;28;20053;-54
2022/05/08 04:40:24;;;;;;;9.52;3.17;;;;;;;12.61;44.32;95145.50;4143849;28;20050;-54
2022/05/08 04:42:26;;;;;;;8.93;3.35;;;;;;;12.61;44.57;95142.06;4144925;28;20353;-52
2022/05/08 04:44:28;;;;;;;7.80;3.15;;;;;;;12.68;44.76;95138.59;4142127;28;20061;-54
2022/05/08 04:46:31;;;;;;;5.85;3.00;;;;;;;12.55;42.88;95140.88;4139730;28;20124;-52
2022/05/08 04:48:33;;;;;;;5.47;3.13;;;;;;;12.49;43.24;95138.88;4143716;28;20048;-53
2022/05/08 04:50:35;;;;;;;5.90;3.15;;;;;;;12.54;43.33;95141.03;4144570;28;20045;-54
2022/05/08 04:52:36;;;;;;;6.32;3.20;;;;;;;12.55;43.24;95143.50;4144298;28;20054;-52
2022/05/08 04:54:38;;;;;;;8.07;3.03;;;;;;;12.55;43.13;95146.13;4142374;28;20108;-52
2022/05/08 04:56:40;;;;;;;8.02;2.90;;;;;;;12.64;42.95;95141.72;4144118;28;20061;-54
2022/05/08 04:58:42;;;;;;;5.55;2.90;;;;;;;12.75;42.72;95141.41;4144503;28;20207;-50
2022/05/08 05:00:44;;;;;;;6.72;3.17;;;;;;;12.78;42.64;95140.28;4144293;28;20050;-55
2022/05/08 05:02:45;;;;;;;9.88;3.08;;;;;;;12.79;42.20;95147.16;4144075;28;20049;-52
2022/05/08 05:04:47;;;;;;;9.15;3.50;;;;;;;12.59;42.11;95142.19;4144301;28;20077;-56
2022/05/08 05:06:49;;;;;;;8.40;3.20;;;;;;;12.55;42.21;95145.31;4144130;28;20465;-52
2022/05/08 05:08:51;;;;;;;8.65;2.90;;;;;;;12.44;42.22;95146.44;4142647;28;20108;-52
2022/05/08 05:10:52;;;;;;;6.93;3.10;;;;;;;12.10;42.53;95149.91;4144422;28;20544;-55
2022/05/08 05:12:54;;;;;;;8.00;3.65;;;;;;;11.70;43.32;95148.66;4144008;28;20150;-52
2022/05/08 05:14:56;;;;;;;7.47;3.15;;;;;;;11.44;43.88;95153.91;4143939;28;20465;-52
2022/05/08 05:16:58;;;;;;;7.38;3.20;;;;;;;11.64;43.85;95152.75;4144032;28;20076;-53
2022/05/08 05:18:59;;;;;;;6.95;3.30;;;;;;;11.87;43.57;95154.84;4143351;28;20116;-53
2022/05/08 05:21:01;;;;;;;7.88;2.90;;;;;;;12.07;43.46;95156.31;4143456;28;20053;-51
2022/05/08 05:23:03;;;;;;;7.72;3.00;;;;;;;12.21;42.92;95151.44;4141378;28;20058;-55
2022/05/08 05:25:05;;;;;;;4.60;3.00;;;;;;;12.31;42.85;95156.56;4144084;28;20053;-54
2022/05/08 05:27:08;;;;;;;6.80;3.00;;;;;;;12.46;42.64;95149.72;4143867;28;20100;-52
2022/05/08 05:29:09;;;;;;;10.38;2.83;;;;;;;12.43;41.49;95144.78;4143747;28;20068;-52
2022/05/08 05:31:12;;;;;;;7.07;3.30;;;;;;;12.32;41.89;95150.31;4143991;28;20045;-50
2022/05/08 05:33:15;;;;;;;8.03;2.87;;;;;;;12.14;42.09;95146.00;4143445;28;20085;-52
2022/05/08 05:35:18;;;;;;;7.78;3.10;;;;;;;12.14;42.31;95153.88;4143792;28;20153;-53
2022/05/08 05:37:19;;;;;;;7.57;2.70;;;;;;;12.28;42.61;95147.19;4143465;28;20058;-51
2022/05/08 05:39:21;;;;;;;4.63;2.65;;;;;;;12.41;41.95;95149.34;4142391;28;20271;-52
2022/05/08 05:41:23;;;;;;;6.40;2.60;;;;;;;12.22;41.86;95153.09;4143447;28;20476;-53
2022/05/08 05:43:25;;;;;;;6.95;2.72;;;;;;;11.94;42.03;95152.44;4143644;28;20054;-51
2022/05/08 05:45:26;;;;;;;6.43;2.95;;;;;;;12.08;42.85;95151.88;4143540;28;20120;-52
2022/05/08 05:49:49;;;;;;;11.63;2.75;;;;;;;12.42;42.56;95151.03;4133760;28;20395;-52
2022/05/08 05:51:51;;;;;;;6.00;3.10;;;;;;;12.64;41.85;95146.97;4141582;28;20061;-53
2022/05/08 05:53:52;;;;;;;7.47;2.80;;;;;;;12.90;42.14;95152.13;4141971;28;20601;-51
2022/05/08 05:55:57;;;;;;;5.00;2.92;;;;;;;13.03;40.48;95147.19;4143417;28;20164;-53
2022/05/08 05:58:00;;;;;;;8.52;2.60;;;;;;;13.02;40.12;95150.00;4143539;28;20064;-51
2022/05/08 06:00:11;;;;;;;10.35;2.80;;;;;;;12.74;40.86;95146.84;4142479;28;20482;-54
2022/05/08 06:02:13;;;;;;;6.63;2.88;;;;;;;12.41;41.34;95152.84;4134766;28;20166;-52
2022/05/08 06:04:15;;;;;;;13.85;3.22;;;;;;;12.24;42.58;95146.69;4142966;28;20050;-53
2022/05/08 06:06:17;;;;;;;5.93;2.60;;;;;;;12.45;43.06;95143.66;4143060;28;21128;-53
2022/05/08 06:08:19;;;;;;;8.07;3.03;;;;;;;12.75;41.80;95145.84;4142150;28;20057;-51
2022/05/08 06:10:20;;;;;;;7.50;3.10;;;;;;;12.99;41.78;95140.66;4143356;28;20050;-49
2022/05/08 06:12:22;;;;;;;5.97;2.55;;;;;;;13.31;40.77;95141.66;4143055;28;20065;-56
2022/05/08 06:14:24;;;;;;;4.82;3.03;;;;;;;13.55;40.24;95134.72;4143097;28;20057;-56
2022/05/08 06:16:25;;;;;;;6.43;2.63;;;;;;;13.67;39.40;95128.13;4143212;28;20081;-55
2022/05/08 06:18:27;;;;;;;4.43;2.50;;;;;;;13.25;40.11;95143.13;4142725;28;20057;-55
2022/05/08 06:20:29;;;;;;;4.55;2.38;;;;;;;13.01;41.31;95138.66;4142821;28;20442;-52
2022/05/08 06:22:32;;;;;;;6.03;2.60;;;;;;;13.23;41.54;95136.38;4142911;28;20054;-52
2022/05/08 06:24:35;;;;;;;6.35;2.45;;;;;;;13.46;41.29;95142.63;4141449;28;20054;-52
2022/05/08 06:26:36;;;;;;;8.40;2.83;;;;;;;13.74;40.77;95144.88;4143161;28;20625;-53
2022/05/08 06:28:40;;;;;;;7.43;3.00;;;;;;;13.97;39.91;95133.66;4143081;28;20549;-55
2022/05/08 06:30:42;;;;;;;7.88;2.80;;;;;;;14.17;39.62;95131.44;4142755;28;20088;-53
2022/05/08 06:32:44;;;;;;;4.18;2.47;;;;;;;14.32;39.22;95130.56;4143030;28;20104;-54
2022/05/08 06:35:06;;;;;;;5.65;2.28;;;;;;;14.48;38.66;95128.84;4141852;28;20057;-55
2022/05/08 06:37:07;;;;;;;6.45;2.88;;;;;;;14.63;38.73;95129.78;4142258;28;20090;-55
2022/05/08 06:39:09;;;;;;;5.05;3.00;;;;;;;14.76;38.47;95128.41;4141430;28;20049;-51
2022/05/08 06:41:11;;;;;;;8.18;2.90;;;;;;;14.79;38.62;95131.50;4142824;28;20529;-53
2022/05/08 06:43:13;;;;;;;7.35;2.60;;;;;;;14.48;38.63;95136.75;4142980;28;20066;-53
2022/05/08 06:45:15;;;;;;;5.57;2.53;;;;;;;14.01;39.00;95129.69;4142645;28;20496;-55
2022/05/08 06:47:23;;;;;;;8.77;3.53;;;;;;;13.69;39.62;95132.25;4135340;28;20053;-51
2022/05/08 06:49:25;;;;;;;5.82;2.72;;;;;;;13.83;39.70;95133.38;4130609;28;20151;-54
2022/05/08 06:51:27;;;;;;;5.75;2.42;;;;;;;14.08;39.03;95120.94;4126307;28;20050;-51
2022/05/08 06:53:30;;;;;;;6.20;3.20;;;;;;;14.07;38.34;95118.50;4125045;28;20172;-54
2022/05/08 06:55:35;;;;;;;4.72;2.60;;;;;;;13.83;38.60;95119.38;4126376;28;20069;-55
2022/05/08 06:57:37;;;;;;;7.03;2.63;;;;;;;13.47;39.39;95125.03;4126679;28;20117;-54
2022/05/08 07:01:59;;;;;;;8.13;3.83;;;;;;;14.03;39.44;95125.09;4126545;28;20092;-51
2022/05/08 07:04:02;;;;;;;6.30;2.80;;;;;;;14.38;39.37;95125.59;4126066;28;20077;-53
2022/05/08 07:06:04;;;;;;;8.82;2.50;;;;;;;14.70;39.16;95116.72;4126269;28;20090;-54
2022/05/08 07:08:07;;;;;;;5.72;3.22;;;;;;;14.96;38.99;95119.03;4124987;28;20565;-52
2022/05/08 07:10:09;;;;;;;9.20;3.08;;;;;;;15.17;38.26;95113.09;4126465;28;20113;-51
2022/05/08 07:12:10;;;;;;;6.68;2.80;;;;;;;15.38;37.95;95115.09;4126356;28;20444;-52
2022/05/08 07:14:12;;;;;;;7.97;2.95;;;;;;;15.53;37.67;95109.81;4126286;28;20062;-52
2022/05/08 07:16:14;;;;;;;8.05;2.80;;;;;;;15.56;38.08;95114.75;4126288;28;20483;-53
2022/05/08 07:18:18;;;;;;;4.88;3.13;;;;;;;15.44;37.24;95117.00;4142058;28;20058;-51
2022/05/08 07:20:19;;;;;;;5.80;2.60;;;;;;;15.54;37.11;95109.63;4142514;28;20115;-49
2022/05/08 07:22:22;;;;;;;4.75;2.47;;;;;;;15.24;37.21;95113.22;4142417;28;20049;-53
2022/05/08 07:24:24;;;;;;;10.32;2.85;;;;;;;14.77;38.17;95114.22;4140988;28;20057;-49
2022/05/08 07:26:26;;;;;;;5.20;2.78;;;;;;;14.51;39.17;95116.13;4142608;28;20050;-50
2022/05/08 07:28:30;;;;;;;5.43;3.22;;;;;;;14.59;38.75;95114.50;4142428;28;20477;-51
2022/05/08 07:30:32;;;;;;;4.93;2.78;;;;;;;14.37;38.74;95105.50;4142267;28;20112;-52
2022/05/08 07:32:34;;;;;;;7.97;3.08;;;;;;;14.33;39.76;95119.03;4142565;28;20379;-52
2022/05/08 07:36:57;;;;;;;4.65;2.58;;;;;;;14.78;39.40;95107.94;4142534;28;20050;-52
2022/05/08 07:38:59;;;;;;;6.00;2.78;;;;;;;14.97;38.65;95099.59;4140952;28;20103;-51
2022/05/08 07:41:01;;;;;;;8.40;2.78;;;;;;;14.90;38.57;95096.81;4142210;28;20444;-54
2022/05/08 07:43:03;;;;;;;4.00;2.53;;;;;;;14.89;38.98;95099.63;4142367;28;20127;-53
2022/05/08 07:45:07;;;;;;;5.78;2.63;;;;;;;14.66;39.24;95095.16;4142380;28;20058;-52
2022/05/08 07:47:08;;;;;;;12.40;4.03;;;;;;;14.62;39.07;95101.75;4144458;28;20128;-52
2022/05/08 07:49:11;;;;;;;5.20;2.85;;;;;;;14.51;38.91;95095.03;4141501;28;20200;-52
2022/05/08 07:51:13;;;;;;;7.65;3.80;;;;;;;14.34;39.46;95099.56;4145327;28;20145;-52
2022/05/08 07:53:15;;;;;;;5.60;3.40;;;;;;;14.67;39.34;95093.34;4144051;28;20443;-51
2022/05/08 07:55:17;;;;;;;7.38;2.80;;;;;;;14.76;38.68;95089.66;4145311;28;20457;-54
2022/05/08 07:57:18;;;;;;;9.07;2.80;;;;;;;14.99;39.25;95092.28;4145318;28;20058;-50
2022/05/08 07:59:20;;;;;;;8.77;3.08;;;;;;;15.31;38.75;95085.09;4145389;28;20112;-51
2022/05/08 08:01:22;;;;;;;5.90;2.92;;;;;;;15.68;38.45;95092.19;4145292;28;20054;-51
2022/05/08 08:03:44;;;;;;;10.05;3.30;;;;;;;15.75;37.13;95094.97;4144665;28;20108;-54
2022/05/08 08:05:46;;;;;;;5.30;2.40;;;;;;;15.30;37.99;95091.41;4144773;28;20054;-52
2022/05/08 08:08:07;;;;;;;5.38;2.63;;;;;;;15.59;37.86;95087.16;4143298;28;20168;-48
2022/05/08 08:10:09;;;;;;;5.55;3.05;;;;;;;15.97;37.67;95077.38;4144776;28;20435;-51
2022/05/08 08:12:11;;;;;;;8.77;2.78;;;;;;;16.06;36.95;95086.84;4144708;28;20065;-50
2022/05/08 08:14:14;;;;;;;5.82;3.08;;;;;;;16.24;36.85;95086.47;4144535;28;20060;-53
2022/05/08 08:16:36;;;;;;;5.93;3.20;;;;;;;16.44;36.72;95078.78;4144468;28;20160;-55
2022/05/08 08:18:42;;;;;;;10.07;2.63;;;;;;;16.41;36.39;95073.84;4144190;28;20053;-54
2022/05/08 08:20:44;;;;;;;4.13;2.75;;;;;;;16.02;36.92;95076.81;4144888;28;20061;-52
2022/05/08 08:22:46;;;;;;;6.60;2.92;;;;;;;16.22;37.30;95077.06;4144891;28;20042;-53
2022/05/08 08:24:49;;;;;;;8.35;2.90;;;;;;;16.45;37.09;95072.47;4143459;28;20054;-53
2022/05/08 08:26:51;;;;;;;7.07;2.92;;;;;;;16.80;37.26;95077.97;4144856;28;20085;-54
2022/05/08 08:28:53;;;;;;;5.13;2.80;;;;;;;17.03;35.92;95069.81;4144837;28;20495;-51
2022/05/08 08:30:54;;;;;;;4.72;2.95;;;;;;;17.23;35.40;95080.63;4144744;28;20056;-53
2022/05/08 08:32:56;;;;;;;5.78;3.00;;;;;;;17.43;35.23;95075.47;4144235;28;20046;-50
2022/05/08 08:34:58;;;;;;;5.97;2.90;;;;;;;17.37;34.03;95076.22;4144710;28;20050;-50
2022/05/08 08:37:00;;;;;;;7.28;2.90;;;;;;;17.25;34.98;95070.66;4144829;28;20748;-51
2022/05/08 08:39:03;;;;;;;5.25;2.63;;;;;;;17.50;34.94;95067.56;4143106;28;20133;-56
2022/05/08 08:41:05;;;;;;;8.90;2.78;;;;;;;17.70;33.12;95065.03;4144256;28;20046;-54
2022/05/08 08:43:11;;;;;;;4.23;2.57;;;;;;;17.84;33.37;95064.16;4144743;28;20050;-54
2022/05/08 08:47:45;;;;;;;6.55;2.72;;;;;;;18.29;33.19;95059.28;4144421;28;20092;-52
2022/05/08 08:49:53;;;;;;;7.32;3.22;;;;;;;18.56;33.28;95056.72;4137995;28;20116;-52
2022/05/08 08:51:55;;;;;;;9.52;3.20;;;;;;;18.73;33.00;95055.31;4143418;28;20772;-56
2022/05/08 08:53:57;;;;;;;7.80;2.53;;;;;;;18.82;32.36;95051.50;4157946;28;20199;-53
2022/05/08 08:56:01;;;;;;;4.90;2.90;;;;;;;18.85;32.07;95052.94;4144467;28;20174;-54
2022/05/08 08:58:03;;;;;;;7.25;2.85;;;;;;;18.87;31.94;95050.91;4143441;28;20056;-53
2022/05/08 09:00:06;;;;;;;13.00;2.40;;;;;;;18.76;30.90;95048.81;4159229;28;20551;-53
2022/05/08 09:02:15;;;;;;;6.60;2.70;;;;;;;18.71;31.46;95045.94;4144405;28;20073;-51
2022/05/08 09:04:21;;;;;;;5.65;2.63;;;;;;;18.63;31.41;95045.13;4143997;28;20061;-52
2022/05/08 09:06:22;;;;;;;6.60;2.53;;;;;;;18.59;30.72;95046.53;4144420;28;20049;-51
2022/05/08 09:08:32;;;;;;;5.72;2.70;;;;;;;18.30;31.59;95044.19;4142723;28;20063;-53
2022/05/08 09:10:37;;;;;;;6.07;2.90;;;;;;;18.17;31.70;95044.94;4144243;28;20204;-52
2022/05/08 09:12:41;;;;;;;4.18;2.42;;;;;;;18.31;31.63;95041.34;4144415;28;20128;-52
2022/05/08 09:14:43;;;;;;;3.65;2.38;;;;;;;18.61;31.33;95035.72;4143740;28;20061;-55
2022/05/08 09:16:54;;;;;;;8.77;2.33;;;;;;;18.71;31.15;95036.13;4144135;28;20061;-55
2022/05/08 09:18:56;;;;;;;6.68;2.40;;;;;;;18.59;31.15;95027.94;4143778;28;20483;-55
2022/05/08 09:21:54;;;;;;;6.07;2.60;;;;;;;18.52;31.35;95028.94;4143836;28;20045;-53
2022/05/08 09:23:21;;;;;;;8.85;2.78;;;;;;;18.52;31.70;95028.94;4142711;28;20065;-56
2022/05/08 09:25:22;;;;;;;6.70;2.75;;;;;;;18.85;31.64;95029.06;4144064;28;20066;-53
2022/05/08 09:27:24;;;;;;;8.85;2.47;;;;;;;19.15;32.42;95020.72;4144079;28;20054;-53
2022/05/08 09:29:26;;;;;;;4.57;2.63;;;;;;;19.30;32.02;95029.28;4143857;28;20062;-53
2022/05/08 09:31:37;;;;;;;9.27;2.67;;;;;;;19.41;30.73;95030.50;4144077;28;20061;-53
2022/05/08 09:33:47;;;;;;;4.05;2.47;;;;;;;19.56;30.85;95023.13;4143617;28;20057;-51
2022/05/08 09:35:48;;;;;;;5.90;2.55;;;;;;;19.73;31.04;95017.41;4143571;28;20499;-53
2022/05/08 09:37:54;;;;;;;7.05;2.22;;;;;;;19.81;29.45;95019.81;4143062;28;20061;-52
2022/05/08 09:40:15;;;;;;;4.22;2.42;;;;;;;19.26;28.38;95024.59;4143353;28;20580;-54
2022/05/08 09:42:39;;;;;;;6.55;2.50;;;;;;;19.61;28.86;95018.00;4127345;28;20174;-57
2022/05/08 09:45:07;;;;;;;3.47;1.88;;;;;;;19.79;28.33;95008.59;4126735;28;20166;-53
2022/05/08 09:47:09;;;;;;;5.13;1.95;;;;;;;19.97;27.29;95008.75;4126758;28;20054;-54
2022/05/08 09:49:21;;;;;;;3.08;2.10;;;;;;;20.13;26.36;95010.09;4126489;28;20506;-55
2022/05/08 09:51:23;;;;;;;10.10;2.10;;;;;;;20.13;26.56;94999.47;4133431;28;20224;-53
2022/05/08 09:53:27;;;;;;;8.38;1.98;;;;;;;20.02;25.35;95005.44;4141954;28;20042;-53
2022/05/08 09:55:29;;;;;;;2.97;1.90;;;;;;;20.11;23.66;95000.72;4143379;28;20053;-53
2022/05/08 09:57:33;;;;;;;3.55;1.60;;;;;;;20.31;23.79;94992.66;4158416;28;20095;-54
2022/05/08 09:59:34;;;;;;;;;;;;;;;20.34;21.70;94987.72;4143678;28;20054;-55